createdAt,value
2023-05-15T00:00:29.633Z,75.63
2023-05-15T00:02:57.176Z,75.74
2023-05-15T00:05:23.962Z,75.88
2023-05-15T00:07:50.564Z,77.42
2023-05-15T00:10:17.085Z,77.92
2023-05-15T00:12:43.572Z,78.57
2023-05-15T00:15:10.371Z,79.91
2023-05-15T00:17:36.803Z,78.00
2023-05-15T00:20:04.781Z,77.55
2023-05-15T00:22:31.159Z,77.66
2023-05-15T00:24:59.072Z,77.00
2023-05-15T00:27:26.564Z,76.44
2023-05-15T00:29:53.037Z,76.58
2023-05-15T00:32:22.517Z,75.79
2023-05-15T00:34:50.088Z,76.04
2023-05-15T00:37:19.468Z,75.50
2023-05-15T00:39:46.021Z,75.55
2023-05-15T00:42:13.346Z,75.40
2023-05-15T00:44:41.398Z,75.76
2023-05-15T00:47:10.978Z,76.24
2023-05-15T00:49:37.928Z,76.06
2023-05-15T00:52:08.155Z,75.74
2023-05-15T00:54:35.086Z,76.48
2023-05-15T00:57:05.188Z,76.42
2023-05-15T00:59:32.584Z,76.08
2023-05-15T01:01:58.987Z,75.57
2023-05-15T01:04:25.553Z,75.68
2023-05-15T01:06:54.956Z,75.62
2023-05-15T01:09:24.679Z,74.80
2023-05-15T01:11:57.380Z,75.54
2023-05-15T01:14:23.859Z,75.85
2023-05-15T01:16:50.331Z,75.82
2023-05-15T01:19:19.261Z,75.73
2023-05-15T01:22:20.009Z,75.40
2023-05-15T01:25:14.312Z,74.86
2023-05-15T01:27:51.606Z,75.24
2023-05-15T01:30:30.566Z,75.69
2023-05-15T01:33:24.528Z,75.65
2023-05-15T01:36:01.506Z,75.52
2023-05-15T01:38:35.274Z,75.33
2023-05-15T01:41:16.408Z,75.98
2023-05-15T01:43:52.135Z,75.77
2023-05-15T01:46:23.279Z,76.60
2023-05-15T01:48:51.965Z,77.02
2023-05-15T01:51:20.950Z,76.93
2023-05-15T01:53:49.356Z,76.35
2023-05-15T01:56:19.919Z,77.50
2023-05-15T01:58:48.132Z,77.98
2023-05-15T02:01:16.698Z,79.06
2023-05-15T02:03:47.109Z,79.17
2023-05-15T02:06:14.308Z,79.66
2023-05-15T02:08:42.534Z,79.54
2023-05-15T02:11:09.606Z,80.45
2023-05-15T02:13:38.257Z,80.49
2023-05-15T02:16:04.982Z,80.75
2023-05-15T02:18:31.527Z,80.52
2023-05-15T02:20:58.108Z,80.47
2023-05-15T02:23:24.537Z,80.44
2023-05-15T02:25:57.081Z,80.23
2023-05-15T02:28:46.867Z,80.14
2023-05-15T02:31:29.822Z,79.75
2023-05-15T02:34:08.315Z,79.22
2023-05-15T02:36:40.164Z,79.70
2023-05-15T02:39:07.767Z,79.64
2023-05-15T02:41:36.696Z,79.44
2023-05-15T02:44:03.791Z,78.85
2023-05-15T02:46:30.849Z,78.88
2023-05-15T02:48:57.856Z,79.28
2023-05-15T02:51:24.272Z,78.44
2023-05-15T02:53:54.887Z,78.40
2023-05-15T02:56:22.231Z,78.18
2023-05-15T02:58:49.579Z,77.88
2023-05-15T03:01:16.210Z,77.61
2023-05-15T03:03:46.317Z,77.73
2023-05-15T03:06:12.752Z,78.07
2023-05-15T03:08:39.095Z,77.53
2023-05-15T03:11:06.043Z,77.68
2023-05-15T03:13:32.431Z,78.11
2023-05-15T03:15:58.778Z,78.65
2023-05-15T03:18:25.140Z,77.16
2023-05-15T03:20:52.764Z,77.42
2023-05-15T03:23:19.417Z,77.83
2023-05-15T03:25:45.770Z,77.65
2023-05-15T03:28:12.151Z,77.77
2023-05-15T03:30:38.521Z,78.05
2023-05-15T03:33:07.789Z,77.40
2023-05-15T03:35:36.035Z,78.27
2023-05-15T03:38:02.578Z,77.94
2023-05-15T03:40:31.313Z,78.40
2023-05-15T03:42:58.252Z,78.48
2023-05-15T03:45:24.953Z,78.93
2023-05-15T03:47:51.675Z,79.15
2023-05-15T03:50:18.121Z,79.85
2023-05-15T03:52:44.622Z,79.68
2023-05-15T03:55:11.188Z,78.94
2023-05-15T03:57:39.159Z,79.39
2023-05-15T04:00:09.979Z,79.12
2023-05-15T04:02:37.354Z,79.21
2023-05-15T04:05:05.251Z,79.49
2023-05-15T04:07:33.416Z,79.92
2023-05-15T04:10:01.597Z,80.07
2023-05-15T04:12:35.383Z,80.22
2023-05-15T04:15:23.025Z,80.27
2023-05-15T04:17:52.930Z,80.21
2023-05-15T04:20:21.973Z,80.15
2023-05-15T04:22:48.670Z,80.44
2023-05-15T04:25:17.884Z,81.22
2023-05-15T04:27:44.840Z,81.29
2023-05-15T04:30:13.439Z,80.92
2023-05-15T04:32:40.845Z,80.55
2023-05-15T04:35:10.222Z,80.73
2023-05-15T04:37:37.336Z,80.35
2023-05-15T04:40:04.235Z,80.72
2023-05-15T04:42:30.824Z,79.95
2023-05-15T04:44:57.500Z,80.37
2023-05-15T04:47:23.853Z,80.87
2023-05-15T04:49:50.248Z,80.10
2023-05-15T04:52:17.435Z,79.90
2023-05-15T04:54:43.842Z,79.65
2023-05-15T04:57:10.500Z,79.43
2023-05-15T04:59:36.938Z,80.70
2023-05-15T05:02:03.486Z,81.49
2023-05-15T05:04:29.870Z,80.48
2023-05-15T05:06:56.297Z,80.11
2023-05-15T05:09:22.689Z,78.26
2023-05-15T05:11:49.090Z,77.83
2023-05-15T05:14:15.754Z,77.51
2023-05-15T05:16:44.889Z,77.19
2023-05-15T05:19:11.744Z,77.71
2023-05-15T05:21:38.266Z,77.04
2023-05-15T05:24:04.708Z,76.88
2023-05-15T05:26:31.110Z,76.70
2023-05-15T05:28:57.515Z,75.93
2023-05-15T05:31:23.998Z,74.88
2023-05-15T05:33:51.285Z,74.57
2023-05-15T05:36:17.654Z,74.26
2023-05-15T05:38:44.043Z,73.91
2023-05-15T05:41:10.484Z,73.75
2023-05-15T05:43:36.887Z,73.03
2023-05-15T05:46:03.280Z,73.12
2023-05-15T05:48:30.700Z,73.48
2023-05-15T05:50:57.857Z,73.59
2023-05-15T05:53:24.276Z,73.58
2023-05-15T05:55:50.884Z,72.92
2023-05-15T06:00:50.783Z,73.72
2023-05-15T06:03:17.320Z,73.09
2023-05-15T06:05:43.856Z,72.60
2023-05-15T06:08:10.276Z,73.20
2023-05-15T06:10:36.692Z,72.79
2023-05-15T06:13:03.077Z,72.62
2023-05-15T06:15:29.430Z,72.82
2023-05-15T06:17:55.866Z,73.00
2023-05-15T06:20:22.997Z,72.99
2023-05-15T06:22:49.501Z,72.71
2023-05-15T06:25:15.978Z,72.83
2023-05-15T06:27:42.501Z,72.98
2023-05-15T06:30:09.622Z,72.23
2023-05-15T06:32:36.390Z,72.28
2023-05-15T06:35:03.235Z,71.19
2023-05-15T06:37:30.444Z,71.03
2023-05-15T06:39:56.799Z,71.33
2023-05-15T06:42:23.556Z,70.34
2023-05-15T06:44:50.002Z,70.13
2023-05-15T06:47:16.611Z,69.60
2023-05-15T06:49:43.007Z,69.38
2023-05-15T06:52:09.375Z,70.45
2023-05-15T06:54:35.766Z,69.48
2023-05-15T06:57:02.166Z,69.29
2023-05-15T06:59:28.640Z,67.94
2023-05-15T07:01:55.796Z,68.03
2023-05-15T07:04:22.257Z,67.10
2023-05-15T07:06:48.628Z,66.72
2023-05-15T07:09:14.955Z,67.11
2023-05-15T07:11:42.132Z,67.57
2023-05-15T07:14:08.692Z,67.51
2023-05-15T07:16:35.123Z,67.71
2023-05-15T07:19:01.718Z,67.26
2023-05-15T07:21:28.183Z,67.88
2023-05-15T07:23:54.527Z,67.79
2023-05-15T07:26:32.558Z,67.62
2023-05-15T07:29:03.937Z,67.80
2023-05-15T07:31:31.415Z,66.58
2023-05-15T07:33:57.806Z,66.29
2023-05-15T07:36:24.249Z,66.69
2023-05-15T07:38:50.621Z,66.35
2023-05-15T07:41:16.970Z,64.91
2023-05-15T07:43:43.343Z,63.01
2023-05-15T07:46:09.703Z,62.88
2023-05-15T07:48:36.071Z,61.35
2023-05-15T07:51:02.782Z,61.44
2023-05-15T07:53:29.353Z,61.96
2023-05-15T07:55:55.693Z,60.55
2023-05-15T07:58:23.130Z,59.33
2023-05-15T08:00:49.508Z,59.01
2023-05-15T08:03:16.063Z,60.19
2023-05-15T08:05:42.617Z,57.89
2023-05-15T08:08:08.966Z,59.17
2023-05-15T08:10:35.365Z,58.26
2023-05-15T08:13:01.739Z,58.50
2023-05-15T08:15:29.158Z,56.95
2023-05-15T08:17:55.681Z,57.41
2023-05-15T08:20:22.182Z,55.65
2023-05-15T08:22:48.583Z,54.36
2023-05-15T08:25:14.997Z,55.47
2023-05-15T08:27:41.328Z,56.39
2023-05-15T08:30:08.445Z,56.67
2023-05-15T08:32:34.817Z,53.84
2023-05-15T08:35:01.371Z,52.97
2023-05-15T08:37:27.725Z,51.17
2023-05-15T08:39:54.059Z,52.23
2023-05-15T08:42:49.764Z,52.33
2023-05-15T08:45:16.163Z,52.49
2023-05-15T08:47:43.844Z,52.04
2023-05-15T08:50:14.714Z,50.63
2023-05-15T08:52:43.450Z,49.67
2023-05-15T08:55:11.061Z,49.66
2023-05-15T08:57:38.634Z,48.37
2023-05-15T09:00:09.328Z,49.22
2023-05-15T09:02:37.363Z,49.29
2023-05-15T09:05:06.145Z,49.42
2023-05-15T09:07:33.116Z,49.36
2023-05-15T09:10:01.351Z,49.14
2023-05-15T09:12:27.880Z,49.72
2023-05-15T09:15:18.122Z,50.53
2023-05-15T09:17:45.912Z,50.72
2023-05-15T09:20:35.427Z,48.00
2023-05-15T09:23:04.013Z,48.75
2023-05-15T09:25:44.787Z,48.27
2023-05-15T09:28:29.010Z,48.38
2023-05-15T09:31:01.460Z,48.31
2023-05-15T09:33:58.651Z,49.96
2023-05-15T09:36:24.970Z,48.84
2023-05-15T09:39:01.318Z,48.72
2023-05-15T09:41:28.238Z,50.08
2023-05-15T09:43:56.811Z,49.87
2023-05-15T09:46:24.143Z,46.76
2023-05-15T09:48:55.237Z,48.32
2023-05-15T09:51:22.115Z,46.67
2023-05-15T09:53:50.765Z,46.91
2023-05-15T09:56:17.740Z,46.62
2023-05-15T09:58:57.687Z,44.97
2023-05-15T10:01:25.757Z,48.10
2023-05-15T10:04:03.616Z,46.63
2023-05-15T10:06:37.495Z,46.22
2023-05-15T10:09:04.530Z,43.20
2023-05-15T10:11:34.906Z,42.37
2023-05-15T10:14:02.598Z,42.68
2023-05-15T10:16:30.120Z,43.53
2023-05-15T10:18:57.911Z,42.53
2023-05-15T10:21:26.737Z,44.38
2023-05-15T10:23:54.951Z,42.52
2023-05-15T10:26:28.212Z,42.50
2023-05-15T10:28:56.216Z,43.63
2023-05-15T10:31:23.566Z,44.10
2023-05-15T10:33:51.514Z,43.71
2023-05-15T10:36:19.558Z,41.66
2023-05-15T10:38:47.443Z,41.28
2023-05-15T10:41:17.914Z,41.17
2023-05-15T10:43:44.605Z,39.63
2023-05-15T10:46:13.215Z,39.83
2023-05-15T10:48:40.204Z,37.51
2023-05-15T10:51:17.540Z,36.89
2023-05-15T10:53:45.279Z,33.83
2023-05-15T10:56:17.023Z,30.95
2023-05-15T10:58:51.351Z,31.55
2023-05-15T11:01:35.029Z,31.28
2023-05-15T11:04:16.190Z,33.37
2023-05-15T11:06:44.902Z,31.70
2023-05-15T11:09:34.304Z,30.16
2023-05-15T11:12:05.324Z,28.83
2023-05-15T11:15:00.596Z,29.79
2023-05-15T11:17:27.042Z,31.65
2023-05-15T11:19:53.310Z,30.35
2023-05-15T11:22:27.561Z,31.03
2023-05-15T11:24:53.887Z,30.86
2023-05-15T11:27:26.509Z,31.45
2023-05-15T11:30:15.091Z,31.08
2023-05-15T11:32:55.009Z,30.67
2023-05-15T11:35:27.368Z,31.68
2023-05-15T11:38:10.807Z,32.38
2023-05-15T11:40:46.377Z,31.01
2023-05-15T11:43:23.387Z,32.10
2023-05-15T11:45:58.006Z,28.94
2023-05-15T11:48:31.328Z,32.00
2023-05-15T11:50:57.729Z,33.28
2023-05-15T11:53:24.524Z,32.81
2023-05-15T11:55:52.751Z,32.93
2023-05-15T11:58:21.052Z,33.75
2023-05-15T12:00:48.447Z,35.75
2023-05-15T12:03:33.375Z,34.36
2023-05-15T12:06:01.941Z,33.25
2023-05-15T12:08:33.414Z,34.94
2023-05-15T12:11:01.011Z,34.29
2023-05-15T12:13:27.683Z,34.47
2023-05-15T12:15:55.588Z,34.85
2023-05-15T12:18:22.033Z,33.54
2023-05-15T12:20:49.729Z,35.25
2023-05-15T12:23:17.427Z,34.57
2023-05-15T12:25:46.114Z,36.33
2023-05-15T12:28:12.919Z,36.58
2023-05-15T12:30:40.166Z,35.67
2023-05-15T12:33:08.652Z,34.87
2023-05-15T12:35:36.325Z,36.44
2023-05-15T12:38:06.957Z,37.41
2023-05-15T12:40:34.411Z,38.99
2023-05-15T12:43:05.992Z,40.42
2023-05-15T12:45:37.316Z,38.92
2023-05-15T12:48:04.122Z,41.39
2023-05-15T12:50:33.182Z,41.83
2023-05-15T12:53:03.126Z,42.42
2023-05-15T12:55:32.458Z,41.44
2023-05-15T12:58:08.272Z,42.45
2023-05-15T13:00:36.257Z,43.28
2023-05-15T13:03:03.563Z,43.74
2023-05-15T13:05:33.476Z,43.91
2023-05-15T13:08:00.808Z,45.08
2023-05-15T13:10:27.365Z,43.54
2023-05-15T13:12:56.333Z,44.93
2023-05-15T13:15:45.401Z,45.12
2023-05-15T13:18:18.535Z,44.38
2023-05-15T13:20:51.627Z,44.52
2023-05-15T13:23:20.236Z,42.57
2023-05-15T13:25:47.188Z,42.44
2023-05-15T13:28:13.777Z,42.74
2023-05-15T13:30:43.572Z,43.28
2023-05-15T13:33:11.733Z,42.00
2023-05-15T13:35:39.090Z,42.48
2023-05-15T13:38:05.622Z,44.04
2023-05-15T13:40:38.321Z,44.25
2023-05-15T13:43:06.397Z,42.46
2023-05-15T13:45:32.918Z,42.49
2023-05-15T13:47:59.336Z,44.38
2023-05-15T13:50:26.147Z,41.72
2023-05-15T13:52:54.253Z,42.49
2023-05-15T13:55:22.968Z,43.16
2023-05-15T13:57:49.740Z,42.68
2023-05-15T14:00:17.274Z,42.36
2023-05-15T14:02:44.554Z,41.55
2023-05-15T14:05:12.843Z,42.88
2023-05-15T14:07:39.854Z,45.10
2023-05-15T14:10:07.176Z,44.37
2023-05-15T14:12:33.974Z,46.51
2023-05-15T14:15:00.953Z,46.13
2023-05-15T14:17:28.371Z,46.30
2023-05-15T14:19:54.994Z,46.34
2023-05-15T14:22:24.631Z,45.68
2023-05-15T14:24:52.433Z,45.57
2023-05-15T14:27:19.127Z,45.52
2023-05-15T14:29:45.832Z,46.32
2023-05-15T14:32:12.242Z,44.77
2023-05-15T14:34:38.724Z,45.97
2023-05-15T14:37:05.147Z,45.44
2023-05-15T14:39:31.832Z,45.43
2023-05-15T14:41:58.416Z,45.99
2023-05-15T14:44:24.744Z,45.89
2023-05-15T14:47:13.706Z,47.49
2023-05-15T14:49:40.482Z,46.84
2023-05-15T14:52:09.542Z,48.36
2023-05-15T14:54:38.597Z,48.71
2023-05-15T14:57:05.278Z,50.21
2023-05-15T14:59:31.609Z,49.77
2023-05-15T15:01:58.040Z,49.37
2023-05-15T15:04:26.462Z,49.85
2023-05-15T15:06:52.856Z,49.59
2023-05-15T15:09:21.253Z,49.21
2023-05-15T15:11:48.275Z,49.46
2023-05-15T15:14:14.587Z,50.09
2023-05-15T15:16:41.321Z,49.58
2023-05-15T15:19:07.773Z,48.61
2023-05-15T15:21:34.624Z,49.69
2023-05-15T15:24:00.966Z,50.52
2023-05-15T15:26:27.337Z,50.55
2023-05-15T15:28:55.120Z,51.05
2023-05-15T15:31:21.492Z,52.16
2023-05-15T15:33:48.268Z,51.72
2023-05-15T15:36:14.590Z,52.43
2023-05-15T15:38:43.596Z,51.67
2023-05-15T15:41:10.001Z,52.22
2023-05-15T15:43:36.335Z,51.96
2023-05-15T15:46:02.741Z,51.20
2023-05-15T15:48:29.383Z,52.66
2023-05-15T15:50:56.558Z,51.18
2023-05-15T15:53:23.474Z,51.42
2023-05-15T15:55:49.896Z,51.88
2023-05-15T15:58:16.311Z,52.42
2023-05-15T16:00:42.700Z,51.55
2023-05-15T16:03:09.076Z,51.52
2023-05-15T16:05:35.549Z,50.84
2023-05-15T16:08:01.942Z,51.49
2023-05-15T16:10:28.494Z,52.00
2023-05-15T16:12:54.976Z,52.03
2023-05-15T16:15:23.715Z,52.23
2023-05-15T16:17:53.494Z,53.34
2023-05-15T16:20:20.824Z,52.52
2023-05-15T16:22:47.199Z,53.64
2023-05-15T16:25:13.512Z,53.83
2023-05-15T16:27:39.877Z,55.07
2023-05-15T16:30:06.842Z,54.14
2023-05-15T16:32:33.996Z,54.51
2023-05-15T16:35:00.583Z,55.41
2023-05-15T16:37:26.898Z,55.92
2023-05-15T16:39:53.254Z,55.93
2023-05-15T16:42:19.703Z,54.99
2023-05-15T16:44:46.062Z,54.83
2023-05-15T16:47:12.458Z,55.21
2023-05-15T16:49:38.797Z,55.44
2023-05-15T16:52:05.170Z,54.92
2023-05-15T16:54:31.568Z,55.13
2023-05-15T16:56:57.943Z,55.07
2023-05-15T16:59:24.311Z,54.34
2023-05-15T17:01:50.963Z,55.18
2023-05-15T17:04:17.373Z,54.79
2023-05-15T17:06:43.690Z,56.60
2023-05-15T17:09:10.073Z,56.33
2023-05-15T17:11:36.408Z,56.29
2023-05-15T17:14:02.839Z,57.27
2023-05-15T17:16:29.307Z,58.57
2023-05-15T17:18:55.739Z,58.08
2023-05-15T17:21:22.207Z,57.48
2023-05-15T17:23:48.667Z,58.36
2023-05-15T17:26:14.981Z,58.33
2023-05-15T17:28:41.326Z,58.62
2023-05-15T17:31:10.049Z,58.15
2023-05-15T17:33:36.410Z,57.90
2023-05-15T17:36:02.865Z,58.40
2023-05-15T17:38:29.327Z,58.08
2023-05-15T17:40:55.819Z,58.36
2023-05-15T17:43:22.176Z,58.43
2023-05-15T17:45:48.520Z,58.09
2023-05-15T17:48:15.297Z,58.08
2023-05-15T17:50:42.101Z,58.42
2023-05-15T17:53:08.415Z,58.17
2023-05-15T17:55:35.237Z,59.58
2023-05-15T17:58:01.581Z,59.70
2023-05-15T18:00:27.903Z,59.56
2023-05-15T18:02:54.312Z,60.14
2023-05-15T18:05:20.704Z,60.48
2023-05-15T18:07:48.055Z,59.11
2023-05-15T18:10:14.414Z,59.32
2023-05-15T18:12:40.910Z,60.35
2023-05-15T18:15:07.849Z,60.26
2023-05-15T18:17:34.216Z,59.98
2023-05-15T18:20:01.657Z,59.82
2023-05-15T18:22:27.963Z,59.29
2023-05-15T18:24:54.356Z,59.23
2023-05-15T18:27:20.779Z,59.95
2023-05-15T18:29:47.207Z,60.77
2023-05-15T18:32:13.631Z,60.80
2023-05-15T18:34:40.199Z,60.85
2023-05-15T18:37:06.588Z,61.63
2023-05-15T18:39:32.911Z,61.35
2023-05-15T18:42:00.307Z,62.42
2023-05-15T18:44:26.799Z,61.89
2023-05-15T18:46:53.256Z,61.74
2023-05-15T18:49:19.627Z,61.65
2023-05-15T18:51:46.110Z,60.71
2023-05-15T18:54:12.492Z,60.38
2023-05-15T18:56:40.583Z,60.31
2023-05-15T18:59:08.462Z,60.55
2023-05-15T19:01:41.501Z,60.79
2023-05-15T19:04:08.778Z,60.73
2023-05-15T19:06:35.202Z,60.30
2023-05-15T19:09:01.582Z,59.81
2023-05-15T19:11:28.297Z,59.76
2023-05-15T19:13:54.712Z,59.60
2023-05-15T19:16:22.395Z,59.71
2023-05-15T19:18:48.818Z,59.59
2023-05-15T19:21:15.669Z,60.35
2023-05-15T19:23:42.035Z,60.57
2023-05-15T19:26:10.766Z,60.70
2023-05-15T19:28:37.141Z,60.41
2023-05-15T19:31:04.419Z,60.67
2023-05-15T19:33:30.916Z,60.42
2023-05-15T19:35:57.235Z,60.62
2023-05-15T19:38:23.603Z,60.08
2023-05-15T19:40:50.120Z,59.59
2023-05-15T19:43:16.495Z,59.53
2023-05-15T19:45:43.475Z,59.84
2023-05-15T19:48:10.086Z,59.60
2023-05-15T19:50:39.015Z,59.15
2023-05-15T19:53:05.552Z,59.70
2023-05-15T19:55:32.019Z,60.14
2023-05-15T19:57:58.414Z,60.53
2023-05-15T20:00:25.063Z,61.12
2023-05-15T20:02:52.692Z,60.59
2023-05-15T20:05:19.254Z,60.75
2023-05-15T20:07:46.186Z,60.78
2023-05-15T20:10:13.893Z,60.84
2023-05-15T20:12:40.256Z,60.82
2023-05-15T20:15:07.435Z,60.59
2023-05-15T20:17:33.810Z,60.77
2023-05-15T20:20:00.986Z,61.02
2023-05-15T20:22:27.437Z,61.07
2023-05-15T20:24:54.344Z,61.82
2023-05-15T20:27:20.793Z,62.12
2023-05-15T20:29:47.135Z,62.12
2023-05-15T20:32:13.803Z,62.63
2023-05-15T20:34:42.652Z,62.91
2023-05-15T20:37:09.203Z,62.63
2023-05-15T20:39:35.532Z,63.30
2023-05-15T20:42:01.861Z,63.27
2023-05-15T20:44:29.499Z,64.10
2023-05-15T20:46:56.029Z,64.18
2023-05-15T20:49:22.345Z,63.79
2023-05-15T20:51:48.880Z,64.64
2023-05-15T20:54:16.012Z,65.40
2023-05-15T20:56:42.389Z,65.58
2023-05-15T20:59:08.872Z,66.39
2023-05-15T21:01:36.787Z,66.17
2023-05-15T21:04:03.327Z,66.54
2023-05-15T21:06:29.713Z,66.50
2023-05-15T21:08:56.063Z,67.30
2023-05-15T21:11:22.566Z,68.40
2023-05-15T21:13:48.933Z,69.06
2023-05-15T21:16:15.363Z,69.21
2023-05-15T21:18:41.710Z,69.88
2023-05-15T21:21:08.035Z,70.77
2023-05-15T21:23:36.428Z,71.21
2023-05-15T21:26:03.460Z,71.39
2023-05-15T21:28:30.174Z,72.50
2023-05-15T21:30:57.077Z,71.97
2023-05-15T21:33:23.521Z,71.27
2023-05-15T21:35:49.905Z,71.62
2023-05-15T21:38:16.219Z,71.89
2023-05-15T21:40:42.610Z,71.75
2023-05-15T21:43:09.312Z,71.65
2023-05-15T21:45:35.821Z,72.73
2023-05-15T21:48:02.320Z,73.33
2023-05-15T21:50:28.877Z,74.19
2023-05-15T21:52:55.573Z,74.42
2023-05-15T21:55:21.936Z,76.67
2023-05-15T21:57:48.284Z,77.50
2023-05-15T22:00:16.095Z,77.56
2023-05-15T22:02:42.731Z,78.10
2023-05-15T22:05:09.323Z,77.99
2023-05-15T22:07:35.708Z,78.39
2023-05-15T22:10:03.663Z,79.55
2023-05-15T22:12:32.183Z,80.05
2023-05-15T22:14:59.677Z,80.48
2023-05-15T22:17:28.798Z,81.98
2023-05-15T22:20:02.464Z,82.69
2023-05-15T22:22:29.015Z,83.59
2023-05-15T22:24:55.848Z,83.70
2023-05-15T22:27:22.152Z,84.49
2023-05-15T22:29:48.471Z,83.62
2023-05-15T22:32:14.901Z,84.50
2023-05-15T22:34:41.292Z,85.28
2023-05-15T22:37:07.761Z,85.08
2023-05-15T22:39:34.103Z,85.06
2023-05-15T22:42:00.547Z,85.74
2023-05-15T22:44:27.474Z,86.66
2023-05-15T22:46:54.093Z,87.56
2023-05-15T22:49:25.359Z,88.26
2023-05-15T22:51:53.955Z,88.20
2023-05-15T22:54:21.731Z,88.49
2023-05-15T22:56:49.922Z,89.23
2023-05-15T22:59:16.539Z,89.72
2023-05-15T23:01:44.495Z,89.15
2023-05-15T23:04:11.581Z,89.61
2023-05-15T23:06:38.364Z,89.96
2023-05-15T23:09:05.011Z,90.36
2023-05-15T23:11:31.488Z,90.53
2023-05-15T23:13:58.179Z,90.93
2023-05-15T23:16:25.517Z,91.40
2023-05-15T23:18:54.743Z,90.82
2023-05-15T23:21:21.300Z,90.41
2023-05-15T23:23:47.957Z,90.87
2023-05-15T23:26:14.594Z,91.54
2023-05-15T23:28:41.088Z,91.28
2023-05-15T23:31:07.556Z,91.45
2023-05-15T23:33:34.225Z,90.87
2023-05-15T23:36:00.927Z,90.16
2023-05-15T23:38:27.712Z,90.66
2023-05-15T23:40:54.036Z,91.77
2023-05-15T23:43:20.713Z,91.26
2023-05-15T23:45:47.059Z,91.04
2023-05-15T23:48:13.489Z,90.35
2023-05-15T23:50:39.927Z,89.47
2023-05-15T23:53:06.373Z,90.59
2023-05-15T23:55:33.082Z,90.51
2023-05-15T23:57:59.425Z,90.95
